sensor_id;sensor_type;location;lat;lon;timestamp;P1;durP1;ratioP1;P2;durP2;ratioP2
59516;SDS011;45342;42.662;27.718;2023-03-01T00:03:04;5.82;;;4.47;;
59516;SDS011;45342;42.662;27.718;2023-03-01T00:05:29;7.07;;;4.75;;
59516;SDS011;45342;42.662;27.718;2023-03-01T00:07:55;6.70;;;4.77;;
59516;SDS011;45342;42.662;27.718;2023-03-01T00:10:21;7.57;;;5.13;;
59516;SDS011;45342;42.662;27.718;2023-03-01T00:12:46;5.97;;;4.47;;
59516;SDS011;45342;42.662;27.718;2023-03-01T00:15:12;6.38;;;4.72;;
59516;SDS011;45342;42.662;27.718;2023-03-01T00:17:37;6.78;;;4.63;;
59516;SDS011;45342;42.662;27.718;2023-03-01T00:20:03;6.88;;;4.65;;
59516;SDS011;45342;42.662;27.718;2023-03-01T00:22:33;5.45;;;4.20;;
59516;SDS011;45342;42.662;27.718;2023-03-01T00:24:58;7.32;;;4.70;;
59516;SDS011;45342;42.662;27.718;2023-03-01T00:27:24;6.07;;;4.50;;
59516;SDS011;45342;42.662;27.718;2023-03-01T00:29:50;7.18;;;4.72;;
59516;SDS011;45342;42.662;27.718;2023-03-01T00:32:15;5.80;;;4.43;;
59516;SDS011;45342;42.662;27.718;2023-03-01T00:34:41;5.63;;;4.05;;
59516;SDS011;45342;42.662;27.718;2023-03-01T00:37:06;6.10;;;4.60;;
59516;SDS011;45342;42.662;27.718;2023-03-01T00:39:32;6.55;;;4.50;;
59516;SDS011;45342;42.662;27.718;2023-03-01T00:41:58;7.03;;;4.43;;
59516;SDS011;45342;42.662;27.718;2023-03-01T00:44:24;6.20;;;4.63;;
59516;SDS011;45342;42.662;27.718;2023-03-01T00:46:49;5.75;;;4.30;;
59516;SDS011;45342;42.662;27.718;2023-03-01T00:49:15;6.53;;;4.65;;
59516;SDS011;45342;42.662;27.718;2023-03-01T00:51:40;6.50;;;4.50;;
59516;SDS011;45342;42.662;27.718;2023-03-01T00:54:09;6.15;;;4.47;;
59516;SDS011;45342;42.662;27.718;2023-03-01T00:56:35;6.32;;;4.57;;
59516;SDS011;45342;42.662;27.718;2023-03-01T00:59:00;5.25;;;4.00;;
59516;SDS011;45342;42.662;27.718;2023-03-01T01:01:28;5.80;;;4.35;;
59516;SDS011;45342;42.662;27.718;2023-03-01T01:03:56;6.07;;;4.40;;
59516;SDS011;45342;42.662;27.718;2023-03-01T01:06:24;6.80;;;4.60;;
59516;SDS011;45342;42.662;27.718;2023-03-01T01:08:52;6.88;;;4.25;;
59516;SDS011;45342;42.662;27.718;2023-03-01T01:11:18;6.63;;;4.68;;
59516;SDS011;45342;42.662;27.718;2023-03-01T01:13:46;5.65;;;4.22;;
59516;SDS011;45342;42.662;27.718;2023-03-01T01:16:13;5.38;;;4.32;;
59516;SDS011;45342;42.662;27.718;2023-03-01T01:18:39;5.75;;;3.95;;
59516;SDS011;45342;42.662;27.718;2023-03-01T01:21:12;5.45;;;4.50;;
59516;SDS011;45342;42.662;27.718;2023-03-01T01:23:39;5.47;;;4.30;;
59516;SDS011;45342;42.662;27.718;2023-03-01T01:26:10;5.97;;;4.13;;
59516;SDS011;45342;42.662;27.718;2023-03-01T01:28:38;6.57;;;4.60;;
59516;SDS011;45342;42.662;27.718;2023-03-01T01:31:04;5.65;;;4.25;;
59516;SDS011;45342;42.662;27.718;2023-03-01T01:33:30;7.05;;;4.13;;
59516;SDS011;45342;42.662;27.718;2023-03-01T01:35:56;5.60;;;4.43;;
59516;SDS011;45342;42.662;27.718;2023-03-01T01:38:21;5.45;;;4.20;;
59516;SDS011;45342;42.662;27.718;2023-03-01T01:40:48;5.60;;;4.00;;
59516;SDS011;45342;42.662;27.718;2023-03-01T01:43:16;5.03;;;4.00;;
59516;SDS011;45342;42.662;27.718;2023-03-01T01:45:47;5.35;;;4.07;;
59516;SDS011;45342;42.662;27.718;2023-03-01T01:48:18;5.15;;;3.90;;
59516;SDS011;45342;42.662;27.718;2023-03-01T01:50:46;5.18;;;3.92;;
59516;SDS011;45342;42.662;27.718;2023-03-01T01:53:18;4.68;;;3.75;;
59516;SDS011;45342;42.662;27.718;2023-03-01T01:58:12;6.65;;;4.30;;
59516;SDS011;45342;42.662;27.718;2023-03-01T02:00:39;5.57;;;4.00;;
59516;SDS011;45342;42.662;27.718;2023-03-01T02:03:11;5.15;;;4.20;;
59516;SDS011;45342;42.662;27.718;2023-03-01T02:08:05;6.35;;;4.20;;
59516;SDS011;45342;42.662;27.718;2023-03-01T02:10:32;5.28;;;4.18;;
59516;SDS011;45342;42.662;27.718;2023-03-01T02:12:58;5.28;;;3.92;;
59516;SDS011;45342;42.662;27.718;2023-03-01T02:15:25;5.60;;;4.15;;
59516;SDS011;45342;42.662;27.718;2023-03-01T02:20:21;5.40;;;3.95;;
59516;SDS011;45342;42.662;27.718;2023-03-01T02:22:50;4.60;;;3.50;;
59516;SDS011;45342;42.662;27.718;2023-03-01T02:30:12;5.20;;;3.80;;
59516;SDS011;45342;42.662;27.718;2023-03-01T02:32:39;5.97;;;3.72;;
59516;SDS011;45342;42.662;27.718;2023-03-01T02:35:08;5.78;;;4.05;;
59516;SDS011;45342;42.662;27.718;2023-03-01T02:37:35;5.38;;;3.88;;
59516;SDS011;45342;42.662;27.718;2023-03-01T02:40:03;5.53;;;4.07;;
59516;SDS011;45342;42.662;27.718;2023-03-01T02:42:31;5.57;;;4.03;;
59516;SDS011;45342;42.662;27.718;2023-03-01T02:45:01;5.28;;;4.05;;
59516;SDS011;45342;42.662;27.718;2023-03-01T02:47:26;4.80;;;3.85;;
59516;SDS011;45342;42.662;27.718;2023-03-01T02:49:52;5.82;;;3.80;;
59516;SDS011;45342;42.662;27.718;2023-03-01T02:52:27;6.07;;;3.97;;
59516;SDS011;45342;42.662;27.718;2023-03-01T02:55:06;5.65;;;3.88;;
59516;SDS011;45342;42.662;27.718;2023-03-01T02:57:34;5.35;;;3.83;;
59516;SDS011;45342;42.662;27.718;2023-03-01T03:00:03;6.30;;;4.05;;
59516;SDS011;45342;42.662;27.718;2023-03-01T03:02:32;7.50;;;4.00;;
59516;SDS011;45342;42.662;27.718;2023-03-01T03:05:02;5.45;;;3.92;;
59516;SDS011;45342;42.662;27.718;2023-03-01T03:07:28;4.95;;;3.67;;
59516;SDS011;45342;42.662;27.718;2023-03-01T03:09:54;5.07;;;3.35;;
59516;SDS011;45342;42.662;27.718;2023-03-01T03:12:20;5.82;;;3.92;;
59516;SDS011;45342;42.662;27.718;2023-03-01T03:14:45;5.80;;;3.60;;
59516;SDS011;45342;42.662;27.718;2023-03-01T03:17:11;4.78;;;3.55;;
59516;SDS011;45342;42.662;27.718;2023-03-01T03:19:36;5.93;;;3.78;;
59516;SDS011;45342;42.662;27.718;2023-03-01T03:22:02;6.22;;;4.00;;
59516;SDS011;45342;42.662;27.718;2023-03-01T03:24:27;5.35;;;3.78;;
59516;SDS011;45342;42.662;27.718;2023-03-01T03:26:53;5.97;;;4.13;;
59516;SDS011;45342;42.662;27.718;2023-03-01T03:29:19;5.85;;;4.20;;
59516;SDS011;45342;42.662;27.718;2023-03-01T03:31:44;4.55;;;3.70;;
59516;SDS011;45342;42.662;27.718;2023-03-01T03:34:10;5.10;;;3.97;;
59516;SDS011;45342;42.662;27.718;2023-03-01T03:36:42;7.25;;;4.13;;
59516;SDS011;45342;42.662;27.718;2023-03-01T03:39:08;4.50;;;3.63;;
59516;SDS011;45342;42.662;27.718;2023-03-01T03:41:34;6.82;;;4.28;;
59516;SDS011;45342;42.662;27.718;2023-03-01T03:44:00;6.15;;;4.10;;
59516;SDS011;45342;42.662;27.718;2023-03-01T03:46:44;4.55;;;3.53;;
59516;SDS011;45342;42.662;27.718;2023-03-01T03:49:09;6.95;;;4.13;;
59516;SDS011;45342;42.662;27.718;2023-03-01T03:51:35;5.05;;;4.00;;
59516;SDS011;45342;42.662;27.718;2023-03-01T03:54:01;6.35;;;4.35;;
59516;SDS011;45342;42.662;27.718;2023-03-01T03:56:26;5.80;;;4.07;;
59516;SDS011;45342;42.662;27.718;2023-03-01T03:58:52;8.10;;;4.60;;
59516;SDS011;45342;42.662;27.718;2023-03-01T04:01:18;6.47;;;4.07;;
59516;SDS011;45342;42.662;27.718;2023-03-01T04:03:43;5.95;;;4.38;;
59516;SDS011;45342;42.662;27.718;2023-03-01T04:06:12;5.85;;;4.43;;
59516;SDS011;45342;42.662;27.718;2023-03-01T04:08:39;5.57;;;4.00;;
59516;SDS011;45342;42.662;27.718;2023-03-01T04:11:05;6.97;;;4.63;;
59516;SDS011;45342;42.662;27.718;2023-03-01T04:13:50;6.85;;;4.18;;
59516;SDS011;45342;42.662;27.718;2023-03-01T04:16:16;6.95;;;3.97;;
59516;SDS011;45342;42.662;27.718;2023-03-01T04:18:43;4.85;;;3.83;;
59516;SDS011;45342;42.662;27.718;2023-03-01T04:21:09;5.97;;;4.30;;
59516;SDS011;45342;42.662;27.718;2023-03-01T04:23:36;5.45;;;4.05;;
59516;SDS011;45342;42.662;27.718;2023-03-01T04:26:03;6.53;;;4.53;;
59516;SDS011;45342;42.662;27.718;2023-03-01T04:28:30;6.10;;;4.30;;
59516;SDS011;45342;42.662;27.718;2023-03-01T04:31:01;6.15;;;4.70;;
59516;SDS011;45342;42.662;27.718;2023-03-01T04:33:38;7.13;;;4.72;;
59516;SDS011;45342;42.662;27.718;2023-03-01T04:36:16;6.90;;;4.45;;
59516;SDS011;45342;42.662;27.718;2023-03-01T04:38:43;7.30;;;4.68;;
59516;SDS011;45342;42.662;27.718;2023-03-01T04:41:12;6.70;;;4.63;;
59516;SDS011;45342;42.662;27.718;2023-03-01T04:43:38;7.35;;;5.03;;
59516;SDS011;45342;42.662;27.718;2023-03-01T04:46:05;7.15;;;4.82;;
59516;SDS011;45342;42.662;27.718;2023-03-01T04:48:37;5.60;;;4.18;;
59516;SDS011;45342;42.662;27.718;2023-03-01T04:51:04;7.47;;;4.80;;
59516;SDS011;45342;42.662;27.718;2023-03-01T04:55:57;6.57;;;4.13;;
59516;SDS011;45342;42.662;27.718;2023-03-01T04:58:23;7.18;;;4.45;;
59516;SDS011;45342;42.662;27.718;2023-03-01T05:00:50;5.90;;;4.38;;
59516;SDS011;45342;42.662;27.718;2023-03-01T05:03:16;6.43;;;4.90;;
59516;SDS011;45342;42.662;27.718;2023-03-01T05:05:45;6.38;;;4.53;;
59516;SDS011;45342;42.662;27.718;2023-03-01T05:08:12;6.88;;;4.60;;
59516;SDS011;45342;42.662;27.718;2023-03-01T05:10:43;6.32;;;4.60;;
59516;SDS011;45342;42.662;27.718;2023-03-01T05:13:11;6.63;;;4.70;;
59516;SDS011;45342;42.662;27.718;2023-03-01T05:15:38;6.15;;;4.35;;
59516;SDS011;45342;42.662;27.718;2023-03-01T05:18:04;6.60;;;4.18;;
59516;SDS011;45342;42.662;27.718;2023-03-01T05:20:36;6.90;;;4.22;;
59516;SDS011;45342;42.662;27.718;2023-03-01T05:23:03;8.27;;;4.63;;
59516;SDS011;45342;42.662;27.718;2023-03-01T05:25:30;8.10;;;4.97;;
59516;SDS011;45342;42.662;27.718;2023-03-01T05:27:58;6.00;;;4.18;;
59516;SDS011;45342;42.662;27.718;2023-03-01T05:30:30;7.03;;;4.68;;
59516;SDS011;45342;42.662;27.718;2023-03-01T05:32:56;5.63;;;4.32;;
59516;SDS011;45342;42.662;27.718;2023-03-01T05:35:22;5.25;;;4.22;;
59516;SDS011;45342;42.662;27.718;2023-03-01T05:37:48;6.90;;;4.72;;
59516;SDS011;45342;42.662;27.718;2023-03-01T05:40:15;8.77;;;4.72;;
59516;SDS011;45342;42.662;27.718;2023-03-01T05:42:46;6.07;;;4.35;;
59516;SDS011;45342;42.662;27.718;2023-03-01T05:45:13;6.70;;;4.65;;
59516;SDS011;45342;42.662;27.718;2023-03-01T05:47:40;7.82;;;4.45;;
59516;SDS011;45342;42.662;27.718;2023-03-01T05:50:13;6.18;;;4.32;;
59516;SDS011;45342;42.662;27.718;2023-03-01T05:52:43;5.72;;;4.38;;
59516;SDS011;45342;42.662;27.718;2023-03-01T05:55:09;6.60;;;4.68;;
59516;SDS011;45342;42.662;27.718;2023-03-01T05:57:35;8.43;;;4.43;;
59516;SDS011;45342;42.662;27.718;2023-03-01T06:00:00;6.20;;;4.47;;
59516;SDS011;45342;42.662;27.718;2023-03-01T06:02:26;6.93;;;4.80;;
59516;SDS011;45342;42.662;27.718;2023-03-01T06:04:52;6.80;;;4.53;;
59516;SDS011;45342;42.662;27.718;2023-03-01T06:07:17;6.35;;;4.30;;
59516;SDS011;45342;42.662;27.718;2023-03-01T06:09:43;5.97;;;4.60;;
59516;SDS011;45342;42.662;27.718;2023-03-01T06:12:09;6.28;;;4.18;;
59516;SDS011;45342;42.662;27.718;2023-03-01T06:14:34;6.32;;;4.82;;
59516;SDS011;45342;42.662;27.718;2023-03-01T06:17:00;6.45;;;4.47;;
59516;SDS011;45342;42.662;27.718;2023-03-01T06:19:26;6.22;;;4.45;;
59516;SDS011;45342;42.662;27.718;2023-03-01T06:21:51;6.53;;;4.53;;
59516;SDS011;45342;42.662;27.718;2023-03-01T06:24:17;6.97;;;4.53;;
59516;SDS011;45342;42.662;27.718;2023-03-01T06:26:42;8.98;;;4.45;;
59516;SDS011;45342;42.662;27.718;2023-03-01T06:29:08;6.82;;;4.43;;
59516;SDS011;45342;42.662;27.718;2023-03-01T06:31:33;6.60;;;4.30;;
59516;SDS011;45342;42.662;27.718;2023-03-01T06:33:59;6.93;;;4.70;;
59516;SDS011;45342;42.662;27.718;2023-03-01T06:36:25;6.85;;;4.55;;
59516;SDS011;45342;42.662;27.718;2023-03-01T06:38:50;7.33;;;4.47;;
59516;SDS011;45342;42.662;27.718;2023-03-01T06:41:16;7.40;;;4.53;;
59516;SDS011;45342;42.662;27.718;2023-03-01T06:43:41;6.43;;;4.20;;
59516;SDS011;45342;42.662;27.718;2023-03-01T06:46:07;5.70;;;4.40;;
59516;SDS011;45342;42.662;27.718;2023-03-01T06:48:33;6.05;;;4.30;;
59516;SDS011;45342;42.662;27.718;2023-03-01T06:51:00;6.03;;;4.28;;
59516;SDS011;45342;42.662;27.718;2023-03-01T06:53:27;6.90;;;4.07;;
59516;SDS011;45342;42.662;27.718;2023-03-01T06:55:56;6.95;;;4.72;;
59516;SDS011;45342;42.662;27.718;2023-03-01T06:58:22;6.55;;;4.65;;
59516;SDS011;45342;42.662;27.718;2023-03-01T07:00:48;7.45;;;4.65;;
59516;SDS011;45342;42.662;27.718;2023-03-01T07:03:14;5.50;;;4.23;;
59516;SDS011;45342;42.662;27.718;2023-03-01T07:05:39;8.02;;;4.70;;
59516;SDS011;45342;42.662;27.718;2023-03-01T07:08:05;6.15;;;4.45;;
59516;SDS011;45342;42.662;27.718;2023-03-01T07:10:31;6.18;;;4.40;;
59516;SDS011;45342;42.662;27.718;2023-03-01T07:12:57;6.20;;;4.13;;
59516;SDS011;45342;42.662;27.718;2023-03-01T07:15:26;6.43;;;4.28;;
59516;SDS011;45342;42.662;27.718;2023-03-01T07:17:53;6.53;;;4.70;;
59516;SDS011;45342;42.662;27.718;2023-03-01T07:20:19;6.38;;;4.47;;
59516;SDS011;45342;42.662;27.718;2023-03-01T07:22:53;5.88;;;4.22;;
59516;SDS011;45342;42.662;27.718;2023-03-01T07:25:20;7.07;;;4.57;;
59516;SDS011;45342;42.662;27.718;2023-03-01T07:27:55;5.20;;;4.40;;
59516;SDS011;45342;42.662;27.718;2023-03-01T07:30:21;6.50;;;4.57;;
59516;SDS011;45342;42.662;27.718;2023-03-01T07:32:47;7.22;;;4.70;;
59516;SDS011;45342;42.662;27.718;2023-03-01T07:35:13;6.03;;;4.22;;
59516;SDS011;45342;42.662;27.718;2023-03-01T07:37:41;6.60;;;4.38;;
59516;SDS011;45342;42.662;27.718;2023-03-01T07:40:13;7.75;;;4.90;;
59516;SDS011;45342;42.662;27.718;2023-03-01T07:42:42;7.32;;;4.70;;
59516;SDS011;45342;42.662;27.718;2023-03-01T07:45:08;7.07;;;5.03;;
59516;SDS011;45342;42.662;27.718;2023-03-01T07:47:34;7.55;;;4.85;;
59516;SDS011;45342;42.662;27.718;2023-03-01T07:50:03;6.55;;;4.82;;
59516;SDS011;45342;42.662;27.718;2023-03-01T07:52:32;7.35;;;4.75;;
59516;SDS011;45342;42.662;27.718;2023-03-01T07:54:58;7.43;;;4.68;;
59516;SDS011;45342;42.662;27.718;2023-03-01T07:57:23;5.40;;;4.20;;
59516;SDS011;45342;42.662;27.718;2023-03-01T07:59:49;6.63;;;4.35;;
59516;SDS011;45342;42.662;27.718;2023-03-01T08:02:14;6.50;;;4.60;;
59516;SDS011;45342;42.662;27.718;2023-03-01T08:04:41;6.38;;;4.70;;
59516;SDS011;45342;42.662;27.718;2023-03-01T08:07:07;6.20;;;4.40;;
59516;SDS011;45342;42.662;27.718;2023-03-01T08:09:36;5.95;;;4.68;;
59516;SDS011;45342;42.662;27.718;2023-03-01T08:12:02;7.05;;;4.60;;
59516;SDS011;45342;42.662;27.718;2023-03-01T08:14:29;8.35;;;4.93;;
59516;SDS011;45342;42.662;27.718;2023-03-01T08:16:56;6.18;;;4.57;;
59516;SDS011;45342;42.662;27.718;2023-03-01T08:19:22;7.82;;;5.03;;
59516;SDS011;45342;42.662;27.718;2023-03-01T08:21:48;6.63;;;4.85;;
59516;SDS011;45342;42.662;27.718;2023-03-01T08:24:14;6.40;;;4.45;;
59516;SDS011;45342;42.662;27.718;2023-03-01T08:26:39;5.43;;;4.05;;
59516;SDS011;45342;42.662;27.718;2023-03-01T08:29:05;7.50;;;4.65;;
59516;SDS011;45342;42.662;27.718;2023-03-01T08:31:32;6.30;;;4.47;;
59516;SDS011;45342;42.662;27.718;2023-03-01T08:34:02;6.45;;;4.78;;
59516;SDS011;45342;42.662;27.718;2023-03-01T08:36:30;5.90;;;4.50;;
59516;SDS011;45342;42.662;27.718;2023-03-01T08:38:58;8.65;;;4.80;;
59516;SDS011;45342;42.662;27.718;2023-03-01T08:41:24;7.38;;;4.90;;
59516;SDS011;45342;42.662;27.718;2023-03-01T08:43:50;6.63;;;4.72;;
59516;SDS011;45342;42.662;27.718;2023-03-01T08:46:16;7.35;;;4.65;;
59516;SDS011;45342;42.662;27.718;2023-03-01T08:48:41;7.55;;;4.43;;
59516;SDS011;45342;42.662;27.718;2023-03-01T08:51:17;6.75;;;4.47;;
59516;SDS011;45342;42.662;27.718;2023-03-01T08:53:44;6.20;;;4.38;;
59516;SDS011;45342;42.662;27.718;2023-03-01T08:56:10;7.75;;;4.65;;
59516;SDS011;45342;42.662;27.718;2023-03-01T09:01:12;11.27;;;5.10;;
59516;SDS011;45342;42.662;27.718;2023-03-01T09:03:43;8.73;;;5.72;;
59516;SDS011;45342;42.662;27.718;2023-03-01T09:08:39;8.03;;;5.07;;
59516;SDS011;45342;42.662;27.718;2023-03-01T09:11:06;10.20;;;5.88;;
59516;SDS011;45342;42.662;27.718;2023-03-01T09:13:33;8.07;;;4.78;;
59516;SDS011;45342;42.662;27.718;2023-03-01T09:16:03;9.43;;;5.43;;
59516;SDS011;45342;42.662;27.718;2023-03-01T09:18:30;8.45;;;5.43;;
59516;SDS011;45342;42.662;27.718;2023-03-01T09:21:03;8.57;;;5.75;;
59516;SDS011;45342;42.662;27.718;2023-03-01T09:23:33;7.75;;;5.25;;
59516;SDS011;45342;42.662;27.718;2023-03-01T09:28:28;7.93;;;5.35;;
59516;SDS011;45342;42.662;27.718;2023-03-01T09:30:57;8.05;;;5.30;;
59516;SDS011;45342;42.662;27.718;2023-03-01T09:33:24;7.97;;;5.15;;
59516;SDS011;45342;42.662;27.718;2023-03-01T09:35:50;9.27;;;5.85;;
59516;SDS011;45342;42.662;27.718;2023-03-01T09:38:21;8.55;;;5.10;;
59516;SDS011;45342;42.662;27.718;2023-03-01T09:40:49;8.48;;;5.50;;
59516;SDS011;45342;42.662;27.718;2023-03-01T09:43:19;8.93;;;5.32;;
59516;SDS011;45342;42.662;27.718;2023-03-01T09:45:49;8.38;;;5.15;;
59516;SDS011;45342;42.662;27.718;2023-03-01T09:48:19;12.75;;;5.43;;
59516;SDS011;45342;42.662;27.718;2023-03-01T09:50:47;11.13;;;5.45;;
59516;SDS011;45342;42.662;27.718;2023-03-01T09:53:16;10.93;;;5.22;;
59516;SDS011;45342;42.662;27.718;2023-03-01T09:55:44;8.48;;;5.35;;
59516;SDS011;45342;42.662;27.718;2023-03-01T10:00:51;9.27;;;5.63;;
59516;SDS011;45342;42.662;27.718;2023-03-01T10:03:26;10.43;;;6.00;;
59516;SDS011;45342;42.662;27.718;2023-03-01T10:11:23;8.85;;;5.63;;
59516;SDS011;45342;42.662;27.718;2023-03-01T10:14:05;9.27;;;5.10;;
59516;SDS011;45342;42.662;27.718;2023-03-01T10:32:42;10.07;;;5.30;;
59516;SDS011;45342;42.662;27.718;2023-03-01T10:35:18;10.82;;;5.93;;
59516;SDS011;45342;42.662;27.718;2023-03-01T10:40:35;12.48;;;6.47;;
59516;SDS011;45342;42.662;27.718;2023-03-01T10:43:05;11.25;;;5.97;;
59516;SDS011;45342;42.662;27.718;2023-03-01T10:45:36;12.15;;;6.43;;
59516;SDS011;45342;42.662;27.718;2023-03-01T10:48:21;12.10;;;6.32;;
59516;SDS011;45342;42.662;27.718;2023-03-01T10:51:05;14.35;;;6.50;;
59516;SDS011;45342;42.662;27.718;2023-03-01T10:53:37;14.45;;;7.03;;
59516;SDS011;45342;42.662;27.718;2023-03-01T10:56:08;13.80;;;7.10;;
59516;SDS011;45342;42.662;27.718;2023-03-01T10:58:57;16.85;;;6.82;;
59516;SDS011;45342;42.662;27.718;2023-03-01T11:01:26;13.27;;;6.75;;
59516;SDS011;45342;42.662;27.718;2023-03-01T11:04:03;15.70;;;7.15;;
59516;SDS011;45342;42.662;27.718;2023-03-01T11:06:30;18.13;;;8.10;;
59516;SDS011;45342;42.662;27.718;2023-03-01T11:11:45;17.30;;;7.05;;
59516;SDS011;45342;42.662;27.718;2023-03-01T11:14:27;23.05;;;8.52;;
59516;SDS011;45342;42.662;27.718;2023-03-01T11:22:29;47.83;;;12.05;;
59516;SDS011;45342;42.662;27.718;2023-03-01T11:24:59;46.33;;;12.68;;
59516;SDS011;45342;42.662;27.718;2023-03-01T11:27:27;67.43;;;15.43;;
59516;SDS011;45342;42.662;27.718;2023-03-01T11:29:58;97.28;;;17.52;;
59516;SDS011;45342;42.662;27.718;2023-03-01T11:35:23;119.28;;;22.27;;
59516;SDS011;45342;42.662;27.718;2023-03-01T11:38:05;101.13;;;20.75;;
59516;SDS011;45342;42.662;27.718;2023-03-01T11:43:23;112.07;;;22.15;;
59516;SDS011;45342;42.662;27.718;2023-03-01T11:46:42;106.90;;;21.75;;
59516;SDS011;45342;42.662;27.718;2023-03-01T12:09:16;80.65;;;21.00;;
59516;SDS011;45342;42.662;27.718;2023-03-01T12:12:51;93.43;;;22.42;;
59516;SDS011;45342;42.662;27.718;2023-03-01T12:14:55;82.70;;;20.20;;
59516;SDS011;45342;42.662;27.718;2023-03-01T12:20:32;70.35;;;19.50;;
59516;SDS011;45342;42.662;27.718;2023-03-01T12:23:13;73.60;;;19.38;;
59516;SDS011;45342;42.662;27.718;2023-03-01T12:28:56;69.50;;;18.27;;
59516;SDS011;45342;42.662;27.718;2023-03-01T12:31:32;68.45;;;19.08;;
59516;SDS011;45342;42.662;27.718;2023-03-01T12:34:29;64.35;;;17.52;;
59516;SDS011;45342;42.662;27.718;2023-03-01T12:40:26;53.40;;;16.48;;
59516;SDS011;45342;42.662;27.718;2023-03-01T12:49:12;44.88;;;15.20;;
59516;SDS011;45342;42.662;27.718;2023-03-01T12:51:44;47.30;;;16.17;;
59516;SDS011;45342;42.662;27.718;2023-03-01T12:54:35;46.20;;;15.73;;
59516;SDS011;45342;42.662;27.718;2023-03-01T12:59:42;45.90;;;15.07;;
59516;SDS011;45342;42.662;27.718;2023-03-01T13:02:23;49.35;;;16.67;;
59516;SDS011;45342;42.662;27.718;2023-03-01T13:08:38;39.88;;;14.98;;
59516;SDS011;45342;42.662;27.718;2023-03-01T13:11:33;41.25;;;14.32;;
59516;SDS011;45342;42.662;27.718;2023-03-01T13:13:44;35.17;;;13.20;;
59516;SDS011;45342;42.662;27.718;2023-03-01T13:21:55;36.38;;;12.85;;
59516;SDS011;45342;42.662;27.718;2023-03-01T13:32:25;29.45;;;12.43;;
59516;SDS011;45342;42.662;27.718;2023-03-01T13:35:42;30.40;;;11.65;;
59516;SDS011;45342;42.662;27.718;2023-03-01T13:37:46;29.30;;;12.52;;
59516;SDS011;45342;42.662;27.718;2023-03-01T13:42:44;26.25;;;11.25;;
59516;SDS011;45342;42.662;27.718;2023-03-01T13:45:36;25.13;;;11.18;;
59516;SDS011;45342;42.662;27.718;2023-03-01T13:48:25;26.80;;;11.82;;
59516;SDS011;45342;42.662;27.718;2023-03-01T13:50:51;25.00;;;11.38;;
59516;SDS011;45342;42.662;27.718;2023-03-01T13:53:21;24.73;;;10.90;;
59516;SDS011;45342;42.662;27.718;2023-03-01T13:55:49;22.83;;;10.90;;
59516;SDS011;45342;42.662;27.718;2023-03-01T13:58:21;22.92;;;10.75;;
59516;SDS011;45342;42.662;27.718;2023-03-01T14:00:56;24.98;;;11.23;;
59516;SDS011;45342;42.662;27.718;2023-03-01T14:03:29;22.95;;;10.77;;
59516;SDS011;45342;42.662;27.718;2023-03-01T14:06:30;20.95;;;10.55;;
59516;SDS011;45342;42.662;27.718;2023-03-01T14:08:51;23.05;;;10.73;;
59516;SDS011;45342;42.662;27.718;2023-03-01T14:16:49;21.08;;;10.30;;
59516;SDS011;45342;42.662;27.718;2023-03-01T14:19:32;21.58;;;10.60;;
59516;SDS011;45342;42.662;27.718;2023-03-01T14:27:33;22.52;;;10.82;;
59516;SDS011;45342;42.662;27.718;2023-03-01T14:30:15;22.33;;;10.52;;
59516;SDS011;45342;42.662;27.718;2023-03-01T14:32:57;19.55;;;10.43;;
59516;SDS011;45342;42.662;27.718;2023-03-01T14:35:33;20.90;;;9.93;;
59516;SDS011;45342;42.662;27.718;2023-03-01T14:38:02;19.85;;;9.88;;
59516;SDS011;45342;42.662;27.718;2023-03-01T14:40:29;18.92;;;9.75;;
59516;SDS011;45342;42.662;27.718;2023-03-01T14:42:58;21.35;;;10.27;;
59516;SDS011;45342;42.662;27.718;2023-03-01T14:45:25;21.05;;;10.02;;
59516;SDS011;45342;42.662;27.718;2023-03-01T14:47:52;20.27;;;9.75;;
59516;SDS011;45342;42.662;27.718;2023-03-01T14:50:28;18.70;;;9.23;;
59516;SDS011;45342;42.662;27.718;2023-03-01T14:52:59;15.45;;;9.40;;
59516;SDS011;45342;42.662;27.718;2023-03-01T14:55:34;17.27;;;9.75;;
59516;SDS011;45342;42.662;27.718;2023-03-01T14:58:04;20.67;;;9.13;;
59516;SDS011;45342;42.662;27.718;2023-03-01T15:00:31;15.48;;;9.27;;
59516;SDS011;45342;42.662;27.718;2023-03-01T15:03:01;18.98;;;9.48;;
59516;SDS011;45342;42.662;27.718;2023-03-01T15:05:34;17.05;;;9.02;;
59516;SDS011;45342;42.662;27.718;2023-03-01T15:08:02;17.30;;;9.50;;
59516;SDS011;45342;42.662;27.718;2023-03-01T15:10:31;18.85;;;9.25;;
59516;SDS011;45342;42.662;27.718;2023-03-01T15:13:13;15.65;;;8.80;;
59516;SDS011;45342;42.662;27.718;2023-03-01T15:15:46;15.13;;;9.07;;
59516;SDS011;45342;42.662;27.718;2023-03-01T15:18:19;14.52;;;8.82;;
59516;SDS011;45342;42.662;27.718;2023-03-01T15:20:47;15.23;;;8.82;;
59516;SDS011;45342;42.662;27.718;2023-03-01T15:25:54;18.90;;;9.13;;
59516;SDS011;45342;42.662;27.718;2023-03-01T15:28:25;15.10;;;8.82;;
59516;SDS011;45342;42.662;27.718;2023-03-01T15:31:04;16.98;;;8.93;;
59516;SDS011;45342;42.662;27.718;2023-03-01T15:33:43;14.73;;;8.38;;
59516;SDS011;45342;42.662;27.718;2023-03-01T15:38:58;12.75;;;7.80;;
59516;SDS011;45342;42.662;27.718;2023-03-01T15:41:30;16.00;;;8.10;;
59516;SDS011;45342;42.662;27.718;2023-03-01T15:43:58;16.83;;;8.63;;
59516;SDS011;45342;42.662;27.718;2023-03-01T15:48:52;16.80;;;8.55;;
59516;SDS011;45342;42.662;27.718;2023-03-01T15:51:42;15.25;;;8.93;;
59516;SDS011;45342;42.662;27.718;2023-03-01T15:54:12;13.85;;;8.52;;
59516;SDS011;45342;42.662;27.718;2023-03-01T15:56:43;15.57;;;9.15;;
59516;SDS011;45342;42.662;27.718;2023-03-01T15:59:09;16.00;;;8.43;;
59516;SDS011;45342;42.662;27.718;2023-03-01T16:01:38;14.80;;;8.82;;
59516;SDS011;45342;42.662;27.718;2023-03-01T16:06:30;13.55;;;8.27;;
59516;SDS011;45342;42.662;27.718;2023-03-01T16:08:56;15.00;;;8.52;;
59516;SDS011;45342;42.662;27.718;2023-03-01T16:11:22;15.50;;;9.15;;
59516;SDS011;45342;42.662;27.718;2023-03-01T16:13:48;13.73;;;8.15;;
59516;SDS011;45342;42.662;27.718;2023-03-01T16:16:14;13.68;;;8.13;;
59516;SDS011;45342;42.662;27.718;2023-03-01T16:18:42;14.45;;;8.80;;
59516;SDS011;45342;42.662;27.718;2023-03-01T16:21:10;13.73;;;8.18;;
59516;SDS011;45342;42.662;27.718;2023-03-01T16:23:42;13.90;;;7.90;;
59516;SDS011;45342;42.662;27.718;2023-03-01T16:26:08;14.38;;;8.30;;
59516;SDS011;45342;42.662;27.718;2023-03-01T16:28:36;17.80;;;8.05;;
59516;SDS011;45342;42.662;27.718;2023-03-01T16:31:02;16.70;;;8.45;;
59516;SDS011;45342;42.662;27.718;2023-03-01T16:33:27;11.35;;;7.53;;
59516;SDS011;45342;42.662;27.718;2023-03-01T16:35:53;13.40;;;8.15;;
59516;SDS011;45342;42.662;27.718;2023-03-01T16:38:18;19.38;;;8.45;;
59516;SDS011;45342;42.662;27.718;2023-03-01T16:40:49;15.88;;;7.60;;
59516;SDS011;45342;42.662;27.718;2023-03-01T16:43:15;12.63;;;7.88;;
59516;SDS011;45342;42.662;27.718;2023-03-01T16:45:41;13.43;;;7.97;;
59516;SDS011;45342;42.662;27.718;2023-03-01T16:48:10;12.15;;;7.45;;
59516;SDS011;45342;42.662;27.718;2023-03-01T16:50:36;12.93;;;7.68;;
59516;SDS011;45342;42.662;27.718;2023-03-01T16:53:02;14.77;;;7.82;;
59516;SDS011;45342;42.662;27.718;2023-03-01T16:55:27;14.07;;;7.40;;
59516;SDS011;45342;42.662;27.718;2023-03-01T16:57:53;13.55;;;7.63;;
59516;SDS011;45342;42.662;27.718;2023-03-01T17:00:19;14.10;;;7.55;;
59516;SDS011;45342;42.662;27.718;2023-03-01T17:02:45;14.52;;;7.65;;
59516;SDS011;45342;42.662;27.718;2023-03-01T17:05:11;12.77;;;7.43;;